sensor_id;sensor_type;location;lat;lon;timestamp;P1;durP1;ratioP1;P2;durP2;ratioP2
27402;SDS011;14862;49.494;8.530;2022-12-08T00:00:06;22.52;;;11.35;;
27402;SDS011;14862;49.494;8.530;2022-12-08T00:02:32;18.73;;;11.15;;
27402;SDS011;14862;49.494;8.530;2022-12-08T00:04:57;20.13;;;12.00;;
27402;SDS011;14862;49.494;8.530;2022-12-08T00:07:40;20.88;;;11.13;;
27402;SDS011;14862;49.494;8.530;2022-12-08T00:10:24;16.70;;;11.25;;
27402;SDS011;14862;49.494;8.530;2022-12-08T00:12:49;22.25;;;11.18;;
27402;SDS011;14862;49.494;8.530;2022-12-08T00:15:15;19.15;;;11.18;;
27402;SDS011;14862;49.494;8.530;2022-12-08T00:17:40;20.77;;;12.45;;
27402;SDS011;14862;49.494;8.530;2022-12-08T00:20:05;20.30;;;11.30;;
27402;SDS011;14862;49.494;8.530;2022-12-08T00:22:31;20.38;;;11.57;;
27402;SDS011;14862;49.494;8.530;2022-12-08T00:24:56;19.70;;;11.23;;
27402;SDS011;14862;49.494;8.530;2022-12-08T00:27:21;21.55;;;11.93;;
27402;SDS011;14862;49.494;8.530;2022-12-08T00:29:46;19.63;;;11.25;;
27402;SDS011;14862;49.494;8.530;2022-12-08T00:32:12;20.13;;;10.90;;
27402;SDS011;14862;49.494;8.530;2022-12-08T00:34:37;25.35;;;11.98;;
27402;SDS011;14862;49.494;8.530;2022-12-08T00:37:02;20.52;;;12.65;;
27402;SDS011;14862;49.494;8.530;2022-12-08T00:39:27;19.48;;;12.02;;
27402;SDS011;14862;49.494;8.530;2022-12-08T00:41:53;20.38;;;11.88;;
27402;SDS011;14862;49.494;8.530;2022-12-08T00:44:36;22.42;;;12.63;;
27402;SDS011;14862;49.494;8.530;2022-12-08T00:47:01;18.25;;;11.32;;
27402;SDS011;14862;49.494;8.530;2022-12-08T00:49:27;20.15;;;11.57;;
27402;SDS011;14862;49.494;8.530;2022-12-08T00:51:52;21.50;;;12.00;;
27402;SDS011;14862;49.494;8.530;2022-12-08T00:54:17;20.20;;;11.98;;
27402;SDS011;14862;49.494;8.530;2022-12-08T00:56:42;24.23;;;13.43;;
27402;SDS011;14862;49.494;8.530;2022-12-08T00:59:08;22.40;;;12.50;;
27402;SDS011;14862;49.494;8.530;2022-12-08T01:01:34;21.23;;;13.18;;
27402;SDS011;14862;49.494;8.530;2022-12-08T01:04:03;20.10;;;11.82;;
27402;SDS011;14862;49.494;8.530;2022-12-08T01:06:29;18.90;;;12.00;;
27402;SDS011;14862;49.494;8.530;2022-12-08T01:08:54;19.45;;;12.30;;
27402;SDS011;14862;49.494;8.530;2022-12-08T01:11:19;22.45;;;12.63;;
27402;SDS011;14862;49.494;8.530;2022-12-08T01:13:45;23.73;;;12.77;;
27402;SDS011;14862;49.494;8.530;2022-12-08T01:16:20;24.95;;;13.45;;
27402;SDS011;14862;49.494;8.530;2022-12-08T01:18:46;21.88;;;13.02;;
27402;SDS011;14862;49.494;8.530;2022-12-08T01:21:11;21.33;;;12.40;;
27402;SDS011;14862;49.494;8.530;2022-12-08T01:23:36;23.38;;;12.13;;
27402;SDS011;14862;49.494;8.530;2022-12-08T01:26:02;22.60;;;12.82;;
27402;SDS011;14862;49.494;8.530;2022-12-08T01:28:28;24.13;;;13.05;;
27402;SDS011;14862;49.494;8.530;2022-12-08T01:30:54;21.55;;;13.65;;
27402;SDS011;14862;49.494;8.530;2022-12-08T01:33:20;19.05;;;12.35;;
27402;SDS011;14862;49.494;8.530;2022-12-08T01:35:45;22.42;;;13.10;;
27402;SDS011;14862;49.494;8.530;2022-12-08T01:38:10;19.15;;;12.68;;
27402;SDS011;14862;49.494;8.530;2022-12-08T01:40:35;26.10;;;12.82;;
27402;SDS011;14862;49.494;8.530;2022-12-08T01:43:00;24.13;;;12.85;;
27402;SDS011;14862;49.494;8.530;2022-12-08T01:45:29;25.70;;;13.68;;
27402;SDS011;14862;49.494;8.530;2022-12-08T01:47:59;25.05;;;13.93;;
27402;SDS011;14862;49.494;8.530;2022-12-08T01:50:27;22.95;;;13.02;;
27402;SDS011;14862;49.494;8.530;2022-12-08T01:52:58;24.05;;;14.95;;
27402;SDS011;14862;49.494;8.530;2022-12-08T01:55:27;24.48;;;14.68;;
27402;SDS011;14862;49.494;8.530;2022-12-08T01:57:57;25.95;;;14.15;;
27402;SDS011;14862;49.494;8.530;2022-12-08T02:00:24;29.70;;;14.30;;
27402;SDS011;14862;49.494;8.530;2022-12-08T02:05:15;26.50;;;15.60;;
27402;SDS011;14862;49.494;8.530;2022-12-08T02:07:40;24.17;;;13.77;;
27402;SDS011;14862;49.494;8.530;2022-12-08T02:10:07;31.08;;;15.13;;
27402;SDS011;14862;49.494;8.530;2022-12-08T02:12:32;32.13;;;14.55;;
27402;SDS011;14862;49.494;8.530;2022-12-08T02:14:57;27.10;;;14.60;;
27402;SDS011;14862;49.494;8.530;2022-12-08T02:17:44;28.98;;;14.80;;
27402;SDS011;14862;49.494;8.530;2022-12-08T02:30:29;26.10;;;13.15;;
27402;SDS011;14862;49.494;8.530;2022-12-08T02:41:36;23.45;;;13.52;;
27402;SDS011;14862;49.494;8.530;2022-12-08T02:44:08;24.17;;;12.52;;
27402;SDS011;14862;49.494;8.530;2022-12-08T02:46:37;28.15;;;14.40;;
27402;SDS011;14862;49.494;8.530;2022-12-08T02:49:04;29.02;;;14.65;;
27402;SDS011;14862;49.494;8.530;2022-12-08T02:51:30;21.50;;;13.40;;
27402;SDS011;14862;49.494;8.530;2022-12-08T02:53:55;27.58;;;14.30;;
27402;SDS011;14862;49.494;8.530;2022-12-08T02:59:08;26.10;;;14.88;;
27402;SDS011;14862;49.494;8.530;2022-12-08T03:01:42;27.75;;;15.35;;
27402;SDS011;14862;49.494;8.530;2022-12-08T03:14:05;28.38;;;13.38;;
27402;SDS011;14862;49.494;8.530;2022-12-08T03:16:32;25.30;;;14.88;;
27402;SDS011;14862;49.494;8.530;2022-12-08T03:21:30;23.25;;;12.95;;
27402;SDS011;14862;49.494;8.530;2022-12-08T03:23:57;27.13;;;14.57;;
27402;SDS011;14862;49.494;8.530;2022-12-08T03:26:30;25.15;;;14.93;;
27402;SDS011;14862;49.494;8.530;2022-12-08T03:28:58;25.00;;;14.35;;
27402;SDS011;14862;49.494;8.530;2022-12-08T03:31:24;27.10;;;14.30;;
27402;SDS011;14862;49.494;8.530;2022-12-08T03:33:50;25.85;;;14.60;;
27402;SDS011;14862;49.494;8.530;2022-12-08T03:36:18;24.75;;;14.07;;
27402;SDS011;14862;49.494;8.530;2022-12-08T03:38:45;25.60;;;14.25;;
27402;SDS011;14862;49.494;8.530;2022-12-08T03:41:10;24.70;;;13.82;;
27402;SDS011;14862;49.494;8.530;2022-12-08T03:43:42;26.27;;;14.10;;
27402;SDS011;14862;49.494;8.530;2022-12-08T03:46:07;26.33;;;15.75;;
27402;SDS011;14862;49.494;8.530;2022-12-08T03:48:33;28.03;;;15.93;;
27402;SDS011;14862;49.494;8.530;2022-12-08T03:50:58;28.40;;;14.95;;
27402;SDS011;14862;49.494;8.530;2022-12-08T03:53:23;27.00;;;14.55;;
27402;SDS011;14862;49.494;8.530;2022-12-08T03:55:48;28.45;;;16.25;;
27402;SDS011;14862;49.494;8.530;2022-12-08T03:58:13;30.38;;;16.27;;
27402;SDS011;14862;49.494;8.530;2022-12-08T04:00:39;27.95;;;15.77;;
27402;SDS011;14862;49.494;8.530;2022-12-08T04:03:04;28.98;;;15.25;;
27402;SDS011;14862;49.494;8.530;2022-12-08T04:05:30;28.90;;;15.07;;
27402;SDS011;14862;49.494;8.530;2022-12-08T04:07:56;26.77;;;15.77;;
27402;SDS011;14862;49.494;8.530;2022-12-08T04:10:21;34.63;;;18.33;;
27402;SDS011;14862;49.494;8.530;2022-12-08T04:12:46;31.15;;;16.45;;
27402;SDS011;14862;49.494;8.530;2022-12-08T04:15:12;34.10;;;16.65;;
27402;SDS011;14862;49.494;8.530;2022-12-08T04:17:37;32.60;;;16.35;;
27402;SDS011;14862;49.494;8.530;2022-12-08T04:20:02;31.65;;;15.73;;
27402;SDS011;14862;49.494;8.530;2022-12-08T04:22:27;31.70;;;16.45;;
27402;SDS011;14862;49.494;8.530;2022-12-08T04:24:53;33.97;;;17.55;;
27402;SDS011;14862;49.494;8.530;2022-12-08T04:27:18;30.65;;;16.27;;
27402;SDS011;14862;49.494;8.530;2022-12-08T04:29:43;31.15;;;16.77;;
27402;SDS011;14862;49.494;8.530;2022-12-08T04:32:08;42.58;;;18.13;;
27402;SDS011;14862;49.494;8.530;2022-12-08T04:34:33;31.55;;;17.05;;
27402;SDS011;14862;49.494;8.530;2022-12-08T04:36:59;30.58;;;15.98;;
27402;SDS011;14862;49.494;8.530;2022-12-08T04:39:24;32.42;;;15.70;;
27402;SDS011;14862;49.494;8.530;2022-12-08T04:41:49;33.22;;;17.58;;
27402;SDS011;14862;49.494;8.530;2022-12-08T04:44:14;29.80;;;16.35;;
27402;SDS011;14862;49.494;8.530;2022-12-08T04:46:40;30.77;;;16.70;;
27402;SDS011;14862;49.494;8.530;2022-12-08T04:49:05;40.05;;;16.67;;
27402;SDS011;14862;49.494;8.530;2022-12-08T04:51:30;32.70;;;18.10;;
27402;SDS011;14862;49.494;8.530;2022-12-08T04:53:55;38.30;;;18.55;;
27402;SDS011;14862;49.494;8.530;2022-12-08T04:56:20;33.13;;;17.05;;
27402;SDS011;14862;49.494;8.530;2022-12-08T04:58:46;34.60;;;17.13;;
27402;SDS011;14862;49.494;8.530;2022-12-08T05:01:11;33.70;;;17.33;;
27402;SDS011;14862;49.494;8.530;2022-12-08T05:03:36;33.15;;;16.95;;
27402;SDS011;14862;49.494;8.530;2022-12-08T05:06:02;36.20;;;17.65;;
27402;SDS011;14862;49.494;8.530;2022-12-08T05:08:27;33.22;;;16.83;;
27402;SDS011;14862;49.494;8.530;2022-12-08T05:10:53;32.15;;;16.48;;
27402;SDS011;14862;49.494;8.530;2022-12-08T05:13:18;31.42;;;16.20;;
27402;SDS011;14862;49.494;8.530;2022-12-08T05:15:43;35.25;;;16.55;;
27402;SDS011;14862;49.494;8.530;2022-12-08T05:18:09;31.85;;;16.70;;
27402;SDS011;14862;49.494;8.530;2022-12-08T05:20:34;31.42;;;16.50;;
27402;SDS011;14862;49.494;8.530;2022-12-08T05:22:59;30.98;;;16.63;;
27402;SDS011;14862;49.494;8.530;2022-12-08T05:25:25;28.60;;;15.95;;
27402;SDS011;14862;49.494;8.530;2022-12-08T05:27:50;38.70;;;17.08;;
27402;SDS011;14862;49.494;8.530;2022-12-08T05:30:15;32.30;;;16.15;;
27402;SDS011;14862;49.494;8.530;2022-12-08T05:32:41;34.13;;;16.27;;
27402;SDS011;14862;49.494;8.530;2022-12-08T05:35:06;32.45;;;16.25;;
27402;SDS011;14862;49.494;8.530;2022-12-08T05:37:31;32.67;;;17.20;;
27402;SDS011;14862;49.494;8.530;2022-12-08T05:39:57;35.60;;;17.33;;
27402;SDS011;14862;49.494;8.530;2022-12-08T05:42:22;29.48;;;16.75;;
27402;SDS011;14862;49.494;8.530;2022-12-08T05:44:47;34.78;;;17.42;;
27402;SDS011;14862;49.494;8.530;2022-12-08T05:47:12;34.65;;;18.00;;
27402;SDS011;14862;49.494;8.530;2022-12-08T05:49:37;32.58;;;16.98;;
27402;SDS011;14862;49.494;8.530;2022-12-08T05:52:03;35.20;;;18.17;;
27402;SDS011;14862;49.494;8.530;2022-12-08T05:54:28;35.65;;;16.90;;
27402;SDS011;14862;49.494;8.530;2022-12-08T05:56:54;31.88;;;15.82;;
27402;SDS011;14862;49.494;8.530;2022-12-08T05:59:19;32.28;;;17.40;;
27402;SDS011;14862;49.494;8.530;2022-12-08T06:01:44;33.95;;;16.85;;
27402;SDS011;14862;49.494;8.530;2022-12-08T06:04:09;36.17;;;18.13;;
27402;SDS011;14862;49.494;8.530;2022-12-08T06:06:35;36.30;;;17.75;;
27402;SDS011;14862;49.494;8.530;2022-12-08T06:09:01;38.03;;;17.48;;
27402;SDS011;14862;49.494;8.530;2022-12-08T06:11:28;34.05;;;17.55;;
27402;SDS011;14862;49.494;8.530;2022-12-08T06:13:54;30.88;;;15.77;;
27402;SDS011;14862;49.494;8.530;2022-12-08T06:16:20;33.22;;;17.45;;
27402;SDS011;14862;49.494;8.530;2022-12-08T06:18:46;31.13;;;15.57;;
27402;SDS011;14862;49.494;8.530;2022-12-08T06:21:12;26.55;;;15.40;;
27402;SDS011;14862;49.494;8.530;2022-12-08T06:23:37;32.00;;;15.15;;
27402;SDS011;14862;49.494;8.530;2022-12-08T06:26:12;23.13;;;13.45;;
27402;SDS011;14862;49.494;8.530;2022-12-08T06:28:38;23.88;;;14.43;;
27402;SDS011;14862;49.494;8.530;2022-12-08T06:31:08;27.45;;;15.10;;
27402;SDS011;14862;49.494;8.530;2022-12-08T06:33:33;26.05;;;12.40;;
27402;SDS011;14862;49.494;8.530;2022-12-08T06:35:58;24.95;;;14.23;;
27402;SDS011;14862;49.494;8.530;2022-12-08T06:38:23;21.65;;;13.15;;
27402;SDS011;14862;49.494;8.530;2022-12-08T06:40:55;28.73;;;14.63;;
27402;SDS011;14862;49.494;8.530;2022-12-08T06:43:21;26.63;;;14.32;;
27402;SDS011;14862;49.494;8.530;2022-12-08T06:45:46;24.60;;;13.18;;
27402;SDS011;14862;49.494;8.530;2022-12-08T06:48:11;25.67;;;13.80;;
27402;SDS011;14862;49.494;8.530;2022-12-08T06:50:37;23.55;;;13.77;;
27402;SDS011;14862;49.494;8.530;2022-12-08T06:53:02;24.10;;;13.90;;
27402;SDS011;14862;49.494;8.530;2022-12-08T06:55:27;27.88;;;13.32;;
27402;SDS011;14862;49.494;8.530;2022-12-08T06:57:53;22.73;;;12.48;;
27402;SDS011;14862;49.494;8.530;2022-12-08T07:00:18;22.95;;;12.45;;
27402;SDS011;14862;49.494;8.530;2022-12-08T07:02:43;23.90;;;13.05;;
27402;SDS011;14862;49.494;8.530;2022-12-08T07:05:08;28.43;;;14.17;;
27402;SDS011;14862;49.494;8.530;2022-12-08T07:07:34;26.88;;;12.98;;
27402;SDS011;14862;49.494;8.530;2022-12-08T07:09:59;23.02;;;12.57;;
27402;SDS011;14862;49.494;8.530;2022-12-08T07:12:24;20.67;;;12.80;;
27402;SDS011;14862;49.494;8.530;2022-12-08T07:14:49;26.30;;;12.90;;
27402;SDS011;14862;49.494;8.530;2022-12-08T07:17:14;28.30;;;14.43;;
27402;SDS011;14862;49.494;8.530;2022-12-08T07:19:40;24.75;;;13.73;;
27402;SDS011;14862;49.494;8.530;2022-12-08T07:22:05;22.60;;;13.32;;
27402;SDS011;14862;49.494;8.530;2022-12-08T07:24:30;27.55;;;13.70;;
27402;SDS011;14862;49.494;8.530;2022-12-08T07:26:55;23.30;;;13.50;;
27402;SDS011;14862;49.494;8.530;2022-12-08T07:29:21;28.13;;;14.57;;
27402;SDS011;14862;49.494;8.530;2022-12-08T07:31:46;23.48;;;12.77;;
27402;SDS011;14862;49.494;8.530;2022-12-08T07:34:11;21.42;;;11.80;;
27402;SDS011;14862;49.494;8.530;2022-12-08T07:36:37;21.70;;;13.30;;
27402;SDS011;14862;49.494;8.530;2022-12-08T07:39:02;27.27;;;14.15;;
27402;SDS011;14862;49.494;8.530;2022-12-08T07:41:27;25.17;;;12.85;;
27402;SDS011;14862;49.494;8.530;2022-12-08T07:43:53;23.27;;;12.25;;
27402;SDS011;14862;49.494;8.530;2022-12-08T07:46:19;22.02;;;12.35;;
27402;SDS011;14862;49.494;8.530;2022-12-08T07:48:44;24.00;;;12.13;;
27402;SDS011;14862;49.494;8.530;2022-12-08T07:51:10;20.73;;;13.35;;
27402;SDS011;14862;49.494;8.530;2022-12-08T07:53:37;21.92;;;12.20;;
27402;SDS011;14862;49.494;8.530;2022-12-08T07:56:04;22.45;;;13.48;;
27402;SDS011;14862;49.494;8.530;2022-12-08T07:58:31;22.83;;;11.70;;
27402;SDS011;14862;49.494;8.530;2022-12-08T08:00:57;24.33;;;11.98;;
27402;SDS011;14862;49.494;8.530;2022-12-08T08:03:22;21.70;;;12.68;;
27402;SDS011;14862;49.494;8.530;2022-12-08T08:05:47;18.60;;;10.52;;
27402;SDS011;14862;49.494;8.530;2022-12-08T08:08:14;19.23;;;11.20;;
27402;SDS011;14862;49.494;8.530;2022-12-08T08:10:39;20.60;;;12.40;;
27402;SDS011;14862;49.494;8.530;2022-12-08T08:13:04;17.70;;;10.88;;
27402;SDS011;14862;49.494;8.530;2022-12-08T08:15:29;23.42;;;12.40;;
27402;SDS011;14862;49.494;8.530;2022-12-08T08:17:55;19.88;;;11.48;;
27402;SDS011;14862;49.494;8.530;2022-12-08T08:20:20;19.95;;;12.52;;
27402;SDS011;14862;49.494;8.530;2022-12-08T08:22:46;21.40;;;12.10;;
27402;SDS011;14862;49.494;8.530;2022-12-08T08:25:12;20.23;;;12.38;;
27402;SDS011;14862;49.494;8.530;2022-12-08T08:27:37;26.02;;;11.35;;
27402;SDS011;14862;49.494;8.530;2022-12-08T08:30:03;17.98;;;10.45;;
27402;SDS011;14862;49.494;8.530;2022-12-08T08:32:32;19.48;;;11.70;;
27402;SDS011;14862;49.494;8.530;2022-12-08T08:34:58;17.63;;;10.38;;
27402;SDS011;14862;49.494;8.530;2022-12-08T08:37:23;20.33;;;11.20;;
27402;SDS011;14862;49.494;8.530;2022-12-08T08:39:48;18.73;;;10.50;;
27402;SDS011;14862;49.494;8.530;2022-12-08T08:42:13;18.88;;;10.00;;
27402;SDS011;14862;49.494;8.530;2022-12-08T08:44:38;24.67;;;11.13;;
27402;SDS011;14862;49.494;8.530;2022-12-08T08:47:04;20.73;;;10.37;;
27402;SDS011;14862;49.494;8.530;2022-12-08T08:49:29;24.55;;;10.93;;
27402;SDS011;14862;49.494;8.530;2022-12-08T08:51:54;22.13;;;11.02;;
27402;SDS011;14862;49.494;8.530;2022-12-08T08:54:20;18.80;;;10.80;;
27402;SDS011;14862;49.494;8.530;2022-12-08T08:56:45;22.38;;;11.65;;
27402;SDS011;14862;49.494;8.530;2022-12-08T08:59:12;24.15;;;13.20;;
27402;SDS011;14862;49.494;8.530;2022-12-08T09:01:37;21.88;;;12.45;;
27402;SDS011;14862;49.494;8.530;2022-12-08T09:04:02;22.38;;;12.27;;
27402;SDS011;14862;49.494;8.530;2022-12-08T09:06:27;23.05;;;10.95;;
27402;SDS011;14862;49.494;8.530;2022-12-08T09:08:53;22.30;;;11.48;;
27402;SDS011;14862;49.494;8.530;2022-12-08T09:11:18;22.23;;;11.45;;
27402;SDS011;14862;49.494;8.530;2022-12-08T09:13:45;22.92;;;11.50;;
27402;SDS011;14862;49.494;8.530;2022-12-08T09:16:11;21.50;;;12.27;;
27402;SDS011;14862;49.494;8.530;2022-12-08T09:18:36;20.77;;;12.45;;
27402;SDS011;14862;49.494;8.530;2022-12-08T09:21:14;20.42;;;12.07;;
27402;SDS011;14862;49.494;8.530;2022-12-08T09:23:41;24.42;;;13.05;;
27402;SDS011;14862;49.494;8.530;2022-12-08T09:26:06;21.92;;;13.30;;
27402;SDS011;14862;49.494;8.530;2022-12-08T09:28:32;22.20;;;12.43;;
27402;SDS011;14862;49.494;8.530;2022-12-08T09:30:57;22.08;;;12.90;;
27402;SDS011;14862;49.494;8.530;2022-12-08T09:33:22;26.27;;;13.00;;
27402;SDS011;14862;49.494;8.530;2022-12-08T09:35:48;26.85;;;12.77;;
27402;SDS011;14862;49.494;8.530;2022-12-08T09:38:13;21.48;;;12.07;;
27402;SDS011;14862;49.494;8.530;2022-12-08T09:40:46;20.73;;;11.38;;
27402;SDS011;14862;49.494;8.530;2022-12-08T09:45:37;20.15;;;11.00;;
27402;SDS011;14862;49.494;8.530;2022-12-08T09:50:32;19.33;;;11.07;;
27402;SDS011;14862;49.494;8.530;2022-12-08T09:53:07;23.75;;;12.13;;
27402;SDS011;14862;49.494;8.530;2022-12-08T09:55:36;21.88;;;11.30;;
27402;SDS011;14862;49.494;8.530;2022-12-08T09:58:02;19.23;;;10.93;;
27402;SDS011;14862;49.494;8.530;2022-12-08T10:00:29;20.90;;;11.38;;
27402;SDS011;14862;49.494;8.530;2022-12-08T10:02:54;19.95;;;9.65;;
27402;SDS011;14862;49.494;8.530;2022-12-08T10:05:20;17.83;;;10.27;;
27402;SDS011;14862;49.494;8.530;2022-12-08T10:07:51;18.77;;;10.48;;
27402;SDS011;14862;49.494;8.530;2022-12-08T10:10:37;19.90;;;10.48;;
27402;SDS011;14862;49.494;8.530;2022-12-08T10:13:18;19.15;;;10.60;;
27402;SDS011;14862;49.494;8.530;2022-12-08T10:20:39;18.52;;;9.68;;
27402;SDS011;14862;49.494;8.530;2022-12-08T10:25:38;18.75;;;10.60;;
27402;SDS011;14862;49.494;8.530;2022-12-08T10:28:06;19.67;;;10.27;;
27402;SDS011;14862;49.494;8.530;2022-12-08T10:30:32;19.67;;;11.35;;
27402;SDS011;14862;49.494;8.530;2022-12-08T10:32:57;15.90;;;9.55;;
27402;SDS011;14862;49.494;8.530;2022-12-08T10:35:23;17.98;;;9.43;;
27402;SDS011;14862;49.494;8.530;2022-12-08T10:38:08;16.60;;;9.68;;
27402;SDS011;14862;49.494;8.530;2022-12-08T10:40:37;16.55;;;9.90;;
27402;SDS011;14862;49.494;8.530;2022-12-08T10:43:02;16.77;;;9.43;;
27402;SDS011;14862;49.494;8.530;2022-12-08T10:45:36;16.75;;;9.55;;
27402;SDS011;14862;49.494;8.530;2022-12-08T10:48:08;16.25;;;8.98;;
27402;SDS011;14862;49.494;8.530;2022-12-08T10:50:41;16.83;;;8.95;;
27402;SDS011;14862;49.494;8.530;2022-12-08T10:58:21;15.55;;;9.38;;
27402;SDS011;14862;49.494;8.530;2022-12-08T11:00:47;20.88;;;9.88;;
27402;SDS011;14862;49.494;8.530;2022-12-08T11:03:20;21.50;;;11.85;;
27402;SDS011;14862;49.494;8.530;2022-12-08T11:05:46;16.00;;;9.90;;
27402;SDS011;14862;49.494;8.530;2022-12-08T11:08:11;16.73;;;10.35;;
27402;SDS011;14862;49.494;8.530;2022-12-08T11:10:41;21.13;;;10.18;;
27402;SDS011;14862;49.494;8.530;2022-12-08T11:13:11;17.42;;;9.75;;
27402;SDS011;14862;49.494;8.530;2022-12-08T11:15:40;18.27;;;9.52;;
27402;SDS011;14862;49.494;8.530;2022-12-08T11:18:06;19.08;;;10.88;;
27402;SDS011;14862;49.494;8.530;2022-12-08T11:20:38;24.50;;;9.88;;
27402;SDS011;14862;49.494;8.530;2022-12-08T11:23:15;15.82;;;10.10;;
27402;SDS011;14862;49.494;8.530;2022-12-08T11:25:41;14.68;;;8.77;;
27402;SDS011;14862;49.494;8.530;2022-12-08T11:28:07;12.73;;;8.65;;
27402;SDS011;14862;49.494;8.530;2022-12-08T11:30:35;18.42;;;9.57;;
27402;SDS011;14862;49.494;8.530;2022-12-08T11:35:36;14.00;;;9.00;;
27402;SDS011;14862;49.494;8.530;2022-12-08T11:38:18;16.98;;;10.40;;
27402;SDS011;14862;49.494;8.530;2022-12-08T11:40:49;15.13;;;8.77;;
27402;SDS011;14862;49.494;8.530;2022-12-08T11:45:44;15.27;;;9.27;;
27402;SDS011;14862;49.494;8.530;2022-12-08T11:50:40;13.40;;;8.43;;
27402;SDS011;14862;49.494;8.530;2022-12-08T11:53:26;18.20;;;9.75;;
27402;SDS011;14862;49.494;8.530;2022-12-08T11:55:54;14.80;;;8.98;;
27402;SDS011;14862;49.494;8.530;2022-12-08T11:58:30;12.52;;;8.43;;
27402;SDS011;14862;49.494;8.530;2022-12-08T12:00:59;15.82;;;7.93;;
27402;SDS011;14862;49.494;8.530;2022-12-08T12:03:26;14.68;;;7.72;;
27402;SDS011;14862;49.494;8.530;2022-12-08T12:10:55;15.17;;;8.87;;
27402;SDS011;14862;49.494;8.530;2022-12-08T12:23:25;16.40;;;9.32;;
27402;SDS011;14862;49.494;8.530;2022-12-08T12:26:00;14.52;;;9.63;;
27402;SDS011;14862;49.494;8.530;2022-12-08T12:28:27;16.48;;;9.43;;
27402;SDS011;14862;49.494;8.530;2022-12-08T12:33:24;15.00;;;9.15;;
27402;SDS011;14862;49.494;8.530;2022-12-08T12:35:50;14.48;;;9.13;;
27402;SDS011;14862;49.494;8.530;2022-12-08T12:38:20;15.23;;;8.88;;
27402;SDS011;14862;49.494;8.530;2022-12-08T12:41:05;17.45;;;9.50;;
27402;SDS011;14862;49.494;8.530;2022-12-08T12:43:33;19.55;;;10.25;;
27402;SDS011;14862;49.494;8.530;2022-12-08T12:49:46;16.42;;;9.10;;
27402;SDS011;14862;49.494;8.530;2022-12-08T12:51:43;14.30;;;8.32;;
27402;SDS011;14862;49.494;8.530;2022-12-08T12:54:20;15.00;;;8.60;;
27402;SDS011;14862;49.494;8.530;2022-12-08T12:56:47;12.68;;;8.35;;
27402;SDS011;14862;49.494;8.530;2022-12-08T13:01:57;11.20;;;7.35;;
27402;SDS011;14862;49.494;8.530;2022-12-08T13:04:33;13.30;;;8.02;;
27402;SDS011;14862;49.494;8.530;2022-12-08T13:06:59;10.88;;;7.35;;
27402;SDS011;14862;49.494;8.530;2022-12-08T13:09:31;14.02;;;8.15;;
27402;SDS011;14862;49.494;8.530;2022-12-08T13:11:58;11.75;;;7.15;;
27402;SDS011;14862;49.494;8.530;2022-12-08T13:14:25;11.95;;;7.25;;
27402;SDS011;14862;49.494;8.530;2022-12-08T13:16:52;10.02;;;6.60;;
27402;SDS011;14862;49.494;8.530;2022-12-08T13:19:19;12.73;;;7.07;;
27402;SDS011;14862;49.494;8.530;2022-12-08T13:21:45;14.07;;;7.78;;
27402;SDS011;14862;49.494;8.530;2022-12-08T13:29:13;10.93;;;7.95;;
27402;SDS011;14862;49.494;8.530;2022-12-08T13:39:28;12.77;;;7.25;;
27402;SDS011;14862;49.494;8.530;2022-12-08T13:41:58;10.15;;;6.72;;
27402;SDS011;14862;49.494;8.530;2022-12-08T13:46:59;15.48;;;8.32;;
27402;SDS011;14862;49.494;8.530;2022-12-08T13:49:34;14.02;;;8.75;;
27402;SDS011;14862;49.494;8.530;2022-12-08T13:52:00;13.90;;;8.63;;
27402;SDS011;14862;49.494;8.530;2022-12-08T13:54:30;15.27;;;8.07;;
27402;SDS011;14862;49.494;8.530;2022-12-08T13:56:58;15.50;;;9.45;;
27402;SDS011;14862;49.494;8.530;2022-12-08T13:59:28;13.00;;;8.23;;
27402;SDS011;14862;49.494;8.530;2022-12-08T14:01:55;16.30;;;8.90;;
27402;SDS011;14862;49.494;8.530;2022-12-08T14:04:22;12.63;;;8.25;;
27402;SDS011;14862;49.494;8.530;2022-12-08T14:07:00;16.45;;;8.82;;
27402;SDS011;14862;49.494;8.530;2022-12-08T14:09:34;14.93;;;8.95;;
27402;SDS011;14862;49.494;8.530;2022-12-08T14:12:08;16.95;;;8.95;;
27402;SDS011;14862;49.494;8.530;2022-12-08T14:14:42;14.93;;;9.25;;
27402;SDS011;14862;49.494;8.530;2022-12-08T14:17:13;15.43;;;8.25;;
27402;SDS011;14862;49.494;8.530;2022-12-08T14:19:41;16.90;;;10.15;;
27402;SDS011;14862;49.494;8.530;2022-12-08T14:24:32;14.90;;;9.90;;
27402;SDS011;14862;49.494;8.530;2022-12-08T14:27:00;17.23;;;9.60;;
27402;SDS011;14862;49.494;8.530;2022-12-08T14:31:55;14.15;;;8.82;;
27402;SDS011;14862;49.494;8.530;2022-12-08T14:34:21;18.90;;;9.32;;
27402;SDS011;14862;49.494;8.530;2022-12-08T14:36:46;13.85;;;8.80;;
27402;SDS011;14862;49.494;8.530;2022-12-08T14:39:11;14.55;;;9.82;;
27402;SDS011;14862;49.494;8.530;2022-12-08T14:41:37;16.77;;;10.25;;
27402;SDS011;14862;49.494;8.530;2022-12-08T14:44:03;16.27;;;9.77;;
27402;SDS011;14862;49.494;8.530;2022-12-08T14:46:38;16.23;;;9.32;;
27402;SDS011;14862;49.494;8.530;2022-12-08T14:49:04;18.23;;;9.98;;
27402;SDS011;14862;49.494;8.530;2022-12-08T14:51:29;19.33;;;10.75;;
27402;SDS011;14862;49.494;8.530;2022-12-08T14:54:06;15.88;;;10.00;;
27402;SDS011;14862;49.494;8.530;2022-12-08T14:56:35;19.17;;;9.63;;
27402;SDS011;14862;49.494;8.530;2022-12-08T15:01:27;15.95;;;8.98;;
27402;SDS011;14862;49.494;8.530;2022-12-08T15:03:52;15.38;;;9.15;;
27402;SDS011;14862;49.494;8.530;2022-12-08T15:06:23;15.40;;;9.25;;
27402;SDS011;14862;49.494;8.530;2022-12-08T15:08:50;13.52;;;9.13;;
27402;SDS011;14862;49.494;8.530;2022-12-08T15:13:47;13.18;;;8.95;;
27402;SDS011;14862;49.494;8.530;2022-12-08T15:19:00;17.45;;;10.07;;
27402;SDS011;14862;49.494;8.530;2022-12-08T15:21:29;19.13;;;10.32;;
27402;SDS011;14862;49.494;8.530;2022-12-08T15:23:56;18.52;;;10.30;;
27402;SDS011;14862;49.494;8.530;2022-12-08T15:26:24;17.60;;;9.52;;
27402;SDS011;14862;49.494;8.530;2022-12-08T15:28:50;16.02;;;9.88;;
27402;SDS011;14862;49.494;8.530;2022-12-08T15:31:16;15.98;;;9.90;;
27402;SDS011;14862;49.494;8.530;2022-12-08T15:33:41;12.57;;;8.80;;
27402;SDS011;14862;49.494;8.530;2022-12-08T15:36:07;15.55;;;9.90;;
27402;SDS011;14862;49.494;8.530;2022-12-08T15:38:33;15.82;;;9.77;;
27402;SDS011;14862;49.494;8.530;2022-12-08T15:40:58;14.23;;;9.77;;
27402;SDS011;14862;49.494;8.530;2022-12-08T15:43:23;17.60;;;10.60;;
27402;SDS011;14862;49.494;8.530;2022-12-08T15:45:49;18.23;;;10.52;;
27402;SDS011;14862;49.494;8.530;2022-12-08T15:48:15;20.25;;;11.63;;
27402;SDS011;14862;49.494;8.530;2022-12-08T15:50:41;19.33;;;11.18;;
27402;SDS011;14862;49.494;8.530;2022-12-08T15:53:07;20.58;;;10.82;;
27402;SDS011;14862;49.494;8.530;2022-12-08T15:55:32;19.67;;;11.85;;
27402;SDS011;14862;49.494;8.530;2022-12-08T15:57:58;19.05;;;10.25;;
27402;SDS011;14862;49.494;8.530;2022-12-08T16:02:52;22.45;;;11.80;;
27402;SDS011;14862;49.494;8.530;2022-12-08T16:05:17;21.63;;;12.10;;
27402;SDS011;14862;49.494;8.530;2022-12-08T16:07:42;23.58;;;12.52;;
27402;SDS011;14862;49.494;8.530;2022-12-08T16:10:18;22.33;;;11.93;;
27402;SDS011;14862;49.494;8.530;2022-12-08T16:12:43;21.63;;;12.43;;
27402;SDS011;14862;49.494;8.530;2022-12-08T16:15:28;21.45;;;12.38;;
27402;SDS011;14862;49.494;8.530;2022-12-08T16:17:53;20.88;;;11.63;;
27402;SDS011;14862;49.494;8.530;2022-12-08T16:20:20;21.52;;;12.45;;